Time,TemperatureF,DewpointF,PressureIn,WindDirection,WindDirectionDegrees,WindSpeedMPH,WindSpeedGustMPH,Humidity,HourlyPrecipIn,Conditions,Clouds,dailyrainin,SolarRadiationWatts/m^2,SoftwareType,DateUTC
2013-01-21 00:00:00,17.0,6.0,-100.00,North,0,6.0,-999.0,62,-99.99,,,-99.99,0.000000,,2013-01-21 05:00:00,
2013-01-21 00:34:00,17.0,6.0,-100.00,North,0,6.0,-999.0,62,-99.99,,,-99.99,0.000000,,2013-01-21 05:34:00,
2013-01-21 00:43:00,17.0,6.0,-100.00,North,0,6.0,-999.0,62,-99.99,,,-99.99,0.000000,,2013-01-21 05:43:00,
2013-01-21 00:53:00,17.0,6.0,-100.00,North,0,6.0,-999.0,62,-99.99,,,-99.99,0.000000,,2013-01-21 05:53:00,
2013-01-21 03:00:00,16.0,8.0,-100.00,North,0,6.0,-999.0,72,-99.99,,,-99.99,0.000000,,2013-01-21 08:00:00,
2013-01-21 03:43:00,16.0,8.0,-100.00,North,0,6.0,-999.0,72,-99.99,,,-99.99,0.000000,,2013-01-21 08:43:00,
2013-01-21 03:53:00,16.0,8.0,-100.00,North,0,6.0,-999.0,72,-99.99,,,-99.99,0.000000,,2013-01-21 08:53:00,
2013-01-21 06:00:00,14.0,9.0,-100.00,North,0,8.0,-999.0,78,-99.99,,,-99.99,0.000000,,2013-01-21 11:00:00,
2013-01-21 06:33:00,14.0,9.0,-100.00,North,0,8.0,-999.0,78,-99.99,,,-99.99,0.000000,,2013-01-21 11:33:00,
2013-01-21 06:43:00,14.0,9.0,-100.00,North,0,8.0,-999.0,78,-99.99,,,-99.99,0.000000,,2013-01-21 11:43:00,
2013-01-21 06:53:00,14.0,9.0,-100.00,North,0,8.0,-999.0,78,-99.99,,,-99.99,0.000000,,2013-01-21 11:53:00,
2013-01-21 09:00:00,12.0,10.0,-100.00,NNE,22,5.0,-999.0,91,-99.99,,,-99.99,6.960000,,2013-01-21 14:00:00,
2013-01-21 09:43:00,12.0,10.0,-100.00,NNE,22,5.0,-999.0,91,-99.99,,,-99.99,6.960000,,2013-01-21 14:43:00,
2013-01-21 09:53:00,12.0,10.0,-100.00,NNE,22,5.0,-999.0,91,-99.99,,,-99.99,6.960000,,2013-01-21 14:53:00,
2013-01-21 12:00:00,10.0,8.0,-100.00,NNE,22,9.0,-999.0,90,-99.99,,,-99.99,160.080002,,2013-01-21 17:00:00,
2013-01-21 12:43:00,10.0,8.0,-100.00,NNE,22,9.0,-999.0,90,-99.99,,,-99.99,160.080002,,2013-01-21 17:43:00,
2013-01-21 12:53:00,10.0,8.0,-100.00,NNE,22,9.0,-999.0,90,-99.99,,,-99.99,160.080002,,2013-01-21 17:53:00,
2013-01-21 18:00:00,7.0,4.0,-100.00,North,0,9.0,-999.0,89,-99.99,,,-99.99,8.120000,,2013-01-21 23:00:00,
2013-01-21 18:33:00,7.0,4.0,-100.00,North,0,9.0,-999.0,89,-99.99,,,-99.99,8.120000,,2013-01-21 23:33:00,
2013-01-21 18:43:00,7.0,4.0,-100.00,North,0,9.0,-999.0,89,-99.99,,,-99.99,8.120000,,2013-01-21 23:43:00,
2013-01-21 18:53:00,7.0,4.0,-100.00,North,0,9.0,-999.0,89,-99.99,,,-99.99,8.120000,,2013-01-21 23:53:00,
2013-01-21 21:00:00,5.0,3.0,-100.00,NNE,22,9.0,-999.0,87,-99.99,,,-99.99,0.000000,,2013-01-22 02:00:00,
2013-01-21 21:43:00,5.0,3.0,-100.00,NNE,22,9.0,-999.0,87,-99.99,,,-99.99,0.000000,,2013-01-22 02:43:00,
2013-01-21 21:53:00,5.0,3.0,-100.00,NNE,22,9.0,-999.0,87,-99.99,,,-99.99,0.000000,,2013-01-22 02:53:00,